Time;durP1;ratioP1;P1;durP2;ratioP2;P2;SDS_P1;SDS_P2;PMS_P1;PMS_P2;Temp;Humidity;BMP_temperature;BMP_pressure;BME280_temperature;BME280_humidity;BME280_pressure;Samples;Min_cycle;Max_cycle;Signal;HPM_P1;HPM_P2
2022/08/08 00:00:06;;;;;;;7.03;3.92;;;;;;;;;;5069803;28;20672;-17
2022/08/08 00:02:56;;;;;;;7.25;4.18;;;;;;;;;;5070202;28;20230;-17
2022/08/08 00:05:26;;;;;;;6.70;4.30;;;;;;;;;;5071125;28;20233;-17
2022/08/08 00:08:13;;;;;;;4.63;3.80;;;;;;;;;;5071265;28;20234;-17
2022/08/08 00:10:44;;;;;;;5.80;3.88;;;;;;;;;;5071829;28;20271;-17
2022/08/08 00:13:17;;;;;;;5.25;3.70;;;;;;;;;;5063923;28;20345;-16
2022/08/08 00:16:07;;;;;;;5.65;3.60;;;;;;;;;;5066004;28;20241;-17
2022/08/08 00:18:36;;;;;;;7.03;3.65;;;;;;;;;;5064320;28;20234;-17
2022/08/08 00:21:04;;;;;;;5.75;3.45;;;;;;;;;;5065068;28;20324;-16
2022/08/08 00:23:35;;;;;;;5.90;3.97;;;;;;;;;;5063988;28;20304;-17
2022/08/08 00:26:14;;;;;;;8.15;4.28;;;;;;;;;;5066467;28;20695;-17
2022/08/08 00:28:58;;;;;;;6.78;3.88;;;;;;;;;;5064676;28;20230;-17
2022/08/08 00:31:31;;;;;;;5.93;3.70;;;;;;;;;;5066509;28;20320;-17
2022/08/08 00:37:19;;;;;;;5.47;3.50;;;;;;;;;;5062907;28;20659;-16
2022/08/08 00:40:14;;;;;;;7.35;3.58;;;;;;;;;;5062620;28;20241;-17
2022/08/08 00:43:17;;;;;;;6.10;3.60;;;;;;;;;;5066322;28;20280;-17
2022/08/08 00:45:57;;;;;;;4.45;3.85;;;;;;;;;;5063503;28;20321;-17
2022/08/08 00:48:43;;;;;;;5.43;3.78;;;;;;;;;;5067988;28;20229;-17
2022/08/08 00:51:43;;;;;;;4.72;4.20;;;;;;;;;;5065130;28;20238;-17
2022/08/08 00:54:24;;;;;;;6.95;4.28;;;;;;;;;;5066976;28;20233;-17
2022/08/08 00:57:13;;;;;;;4.20;3.78;;;;;;;;;;5068017;28;20705;-17
2022/08/08 01:00:06;;;;;;;5.38;4.05;;;;;;;;;;5064493;28;20234;-17
2022/08/08 01:02:59;;;;;;;6.35;3.70;;;;;;;;;;5068268;28;20239;-17
2022/08/08 01:06:01;;;;;;;6.95;4.38;;;;;;;;;;5063220;28;20717;-17
2022/08/08 01:08:47;;;;;;;7.55;3.55;;;;;;;;;;5068313;28;20232;-17
2022/08/08 01:11:33;;;;;;;5.35;4.07;;;;;;;;;;5059368;28;20268;-17
2022/08/08 01:14:17;;;;;;;6.80;4.10;;;;;;;;;;5063051;28;20230;-17
2022/08/08 01:17:22;;;;;;;6.38;4.25;;;;;;;;;;5063112;28;20240;-17
2022/08/08 01:20:27;;;;;;;6.03;3.95;;;;;;;;;;5068500;28;20240;-17
2022/08/08 01:23:05;;;;;;;4.68;3.50;;;;;;;;;;5063356;28;20244;-16
2022/08/08 01:25:47;;;;;;;4.95;3.70;;;;;;;;;;5066118;28;20236;-16
2022/08/08 01:28:32;;;;;;;9.35;4.30;;;;;;;;;;5063247;28;20287;-18
2022/08/08 01:31:27;;;;;;;6.63;4.03;;;;;;;;;;5063940;28;20915;-18
2022/08/08 01:34:25;;;;;;;6.75;4.30;;;;;;;;;;5068082;28;20233;-18
2022/08/08 01:37:08;;;;;;;5.65;3.97;;;;;;;;;;5063824;28;20824;-17
2022/08/08 01:39:47;;;;;;;4.80;3.97;;;;;;;;;;5064133;28;20240;-17
2022/08/08 01:42:22;;;;;;;6.85;3.50;;;;;;;;;;5058570;28;20234;-18
2022/08/08 01:45:06;;;;;;;6.15;3.85;;;;;;;;;;5069719;28;20323;-19
2022/08/08 01:47:55;;;;;;;5.57;4.03;;;;;;;;;;5067395;28;20237;-17
2022/08/08 01:50:48;;;;;;;6.57;4.15;;;;;;;;;;5065726;28;20225;-18
2022/08/08 01:53:22;;;;;;;8.95;4.13;;;;;;;;;;5060245;28;20719;-18
2022/08/08 01:56:12;;;;;;;5.25;4.10;;;;;;;;;;5069294;28;20240;-17
2022/08/08 01:59:00;;;;;;;5.50;4.55;;;;;;;;;;5067219;28;20328;-17
2022/08/08 02:01:33;;;;;;;6.35;4.30;;;;;;;;;;5066470;28;20229;-17
2022/08/08 02:04:21;;;;;;;5.78;3.92;;;;;;;;;;5055303;28;20239;-17
2022/08/08 02:06:55;;;;;;;6.60;4.20;;;;;;;;;;5063354;28;20237;-17
2022/08/08 02:09:25;;;;;;;9.73;4.32;;;;;;;;;;5049682;28;20333;-18
2022/08/08 02:12:14;;;;;;;5.85;4.10;;;;;;;;;;5060031;28;21024;-17
2022/08/08 02:14:46;;;;;;;5.18;3.97;;;;;;;;;;5065039;28;20218;-16
2022/08/08 02:17:25;;;;;;;6.10;4.90;;;;;;;;;;5061321;28;20230;-17
2022/08/08 02:20:07;;;;;;;8.63;4.65;;;;;;;;;;5055487;28;20700;-17
2022/08/08 02:23:00;;;;;;;5.75;3.83;;;;;;;;;;5078344;22;20241;-15
2022/08/08 02:25:31;;;;;;;5.90;3.70;;;;;;;;;;5068194;28;20603;-16
2022/08/08 02:28:15;;;;;;;6.00;4.68;;;;;;;;;;5065406;28;20232;-16
2022/08/08 02:30:45;;;;;;;5.82;4.30;;;;;;;;;;5068247;28;20229;-16
2022/08/08 02:33:29;;;;;;;4.72;4.10;;;;;;;;;;5064465;28;20233;-16
2022/08/08 02:36:30;;;;;;;5.60;4.50;;;;;;;;;;5066850;28;20688;-15
2022/08/08 02:39:07;;;;;;;4.53;4.13;;;;;;;;;;5067051;28;20241;-15
2022/08/08 02:42:12;;;;;;;6.47;4.65;;;;;;;;;;5069486;28;20236;-15
2022/08/08 02:44:55;;;;;;;4.80;4.30;;;;;;;;;;5058603;28;20229;-16
2022/08/08 02:47:44;;;;;;;7.90;4.28;;;;;;;;;;5063738;28;20715;-15
2022/08/08 02:50:36;;;;;;;10.15;4.35;;;;;;;;;;5068993;28;20261;-16
2022/08/08 02:53:10;;;;;;;5.97;4.10;;;;;;;;;;5059751;28;20251;-16
2022/08/08 02:56:00;;;;;;;6.50;4.20;;;;;;;;;;5065998;28;20233;-15
2022/08/08 02:58:45;;;;;;;6.00;4.00;;;;;;;;;;5068199;28;20229;-16
2022/08/08 03:01:34;;;;;;;5.40;4.07;;;;;;;;;;5068233;28;20237;-16
2022/08/08 03:04:39;;;;;;;4.68;4.00;;;;;;;;;;5047403;28;20249;-16
2022/08/08 03:07:47;;;;;;;7.00;4.82;;;;;;;;;;5068206;28;20245;-16
2022/08/08 03:10:30;;;;;;;4.57;3.97;;;;;;;;;;5034582;28;20325;-15
2022/08/08 03:13:37;;;;;;;7.55;3.95;;;;;;;;;;5069126;28;21107;-16
2022/08/08 03:16:28;;;;;;;4.45;3.92;;;;;;;;;;5067848;28;20238;-16
2022/08/08 03:19:14;;;;;;;5.90;3.80;;;;;;;;;;5068902;28;20312;-16
2022/08/08 03:21:46;;;;;;;6.95;4.35;;;;;;;;;;5071888;28;20237;-16
2022/08/08 03:24:27;;;;;;;5.07;4.57;;;;;;;;;;5072103;28;20367;-16
2022/08/08 03:26:55;;;;;;;5.50;4.40;;;;;;;;;;5072847;28;20248;-15
2022/08/08 03:29:24;;;;;;;5.43;4.20;;;;;;;;;;5071268;28;20283;-16
2022/08/08 03:34:57;;;;;;;5.55;4.25;;;;;;;;;;5069546;28;20682;-15
2022/08/08 03:37:24;;;;;;;4.80;4.10;;;;;;;;;;5071972;28;20316;-16
2022/08/08 03:40:13;;;;;;;5.40;4.32;;;;;;;;;;5071470;28;20225;-15
2022/08/08 03:42:57;;;;;;;6.07;4.18;;;;;;;;;;5069548;28;20225;-16
2022/08/08 03:45:43;;;;;;;6.63;4.85;;;;;;;;;;5070182;28;20240;-15
2022/08/08 03:48:30;;;;;;;5.20;4.25;;;;;;;;;;5068557;28;20233;-16
2022/08/08 03:51:17;;;;;;;6.72;4.72;;;;;;;;;;5069369;28;20237;-16
2022/08/08 03:53:52;;;;;;;6.97;4.70;;;;;;;;;;5066217;28;20248;-16
2022/08/08 03:56:22;;;;;;;6.07;4.60;;;;;;;;;;5068974;28;20758;-15
2022/08/08 03:58:58;;;;;;;5.45;4.78;;;;;;;;;;5066804;28;20257;-15
2022/08/08 04:01:33;;;;;;;5.88;4.13;;;;;;;;;;5068642;28;20242;-16
2022/08/08 04:04:21;;;;;;;6.28;4.60;;;;;;;;;;5065578;28;20225;-16
2022/08/08 04:06:57;;;;;;;5.00;4.40;;;;;;;;;;5066425;28;20244;-16
2022/08/08 04:09:28;;;;;;;5.45;4.47;;;;;;;;;;5071598;28;20229;-16
2022/08/08 04:12:16;;;;;;;7.72;5.25;;;;;;;;;;5068121;28;20860;-16
2022/08/08 04:14:46;;;;;;;6.03;5.43;;;;;;;;;;5065849;28;20233;-16
2022/08/08 04:17:17;;;;;;;8.75;5.07;;;;;;;;;;5066138;28;20613;-16
2022/08/08 04:20:04;;;;;;;8.45;4.57;;;;;;;;;;5068880;28;20233;-16
2022/08/08 04:22:34;;;;;;;5.93;4.57;;;;;;;;;;5068025;28;20349;-14
2022/08/08 04:25:02;;;;;;;5.32;4.50;;;;;;;;;;5070985;28;20311;-16
2022/08/08 04:27:31;;;;;;;5.03;4.25;;;;;;;;;;5067593;28;20332;-16
2022/08/08 04:30:18;;;;;;;5.95;4.75;;;;;;;;;;5067251;28;20707;-16
2022/08/08 04:32:46;;;;;;;5.47;4.65;;;;;;;;;;5067873;28;20580;-16
2022/08/08 04:35:17;;;;;;;4.65;4.13;;;;;;;;;;5064834;28;20624;-16
2022/08/08 04:37:48;;;;;;;6.57;4.63;;;;;;;;;;5066319;28;20233;-15
2022/08/08 04:40:17;;;;;;;6.50;4.38;;;;;;;;;;5065223;28;20614;-16
2022/08/08 04:42:46;;;;;;;5.00;4.50;;;;;;;;;;5069217;28;20233;-15
2022/08/08 04:45:24;;;;;;;10.13;4.72;;;;;;;;;;5068632;28;21343;-13
2022/08/08 04:47:52;;;;;;;11.77;4.93;;;;;;;;;;5068328;28;20221;-14
2022/08/08 04:50:20;;;;;;;5.70;4.35;;;;;;;;;;5068456;28;20240;-15
2022/08/08 04:52:54;;;;;;;4.85;3.75;;;;;;;;;;5070621;28;20237;-16
2022/08/08 04:55:30;;;;;;;9.20;4.65;;;;;;;;;;5068482;28;20693;-16
2022/08/08 04:58:19;;;;;;;7.03;4.50;;;;;;;;;;5065262;28;20240;-16
2022/08/08 05:00:48;;;;;;;8.18;4.25;;;;;;;;;;5070208;28;21039;-13
2022/08/08 05:03:18;;;;;;;9.95;4.88;;;;;;;;;;5065738;28;20688;-13
2022/08/08 05:06:05;;;;;;;7.28;4.43;;;;;;;;;;5069703;28;20230;-15
2022/08/08 05:08:45;;;;;;;14.50;4.80;;;;;;;;;;5068527;28;20234;-16
2022/08/08 05:11:18;;;;;;;17.83;4.50;;;;;;;;;;5070933;28;20608;-16
2022/08/08 05:13:51;;;;;;;17.33;5.35;;;;;;;;;;5070106;28;20333;-16
2022/08/08 05:16:25;;;;;;;9.80;4.70;;;;;;;;;;5070624;28;20239;-16
2022/08/08 05:19:13;;;;;;;10.63;4.28;;;;;;;;;;5069473;28;20237;-13
2022/08/08 05:22:00;;;;;;;9.52;3.85;;;;;;;;;;5069740;28;20995;-16
2022/08/08 05:24:28;;;;;;;9.75;3.88;;;;;;;;;;5069413;28;20559;-16
2022/08/08 05:26:57;;;;;;;12.10;4.18;;;;;;;;;;5070371;28;20283;-15
2022/08/08 05:29:26;;;;;;;12.77;4.32;;;;;;;;;;5069655;28;20976;-16
2022/08/08 05:31:55;;;;;;;7.95;3.78;;;;;;;;;;5070634;28;20904;-15
2022/08/08 05:34:34;;;;;;;5.22;3.38;;;;;;;;;;5071002;28;20252;-16
2022/08/08 05:37:03;;;;;;;12.65;3.58;;;;;;;;;;5061915;28;20328;-16
2022/08/08 05:39:43;;;;;;;8.30;3.47;;;;;;;;;;5070895;28;20256;-15
2022/08/08 05:42:11;;;;;;;9.48;3.40;;;;;;;;;;5069737;28;20229;-16
2022/08/08 05:44:42;;;;;;;6.97;3.33;;;;;;;;;;5069518;28;20425;-16
2022/08/08 05:47:11;;;;;;;10.63;3.00;;;;;;;;;;5070480;28;20237;-16
2022/08/08 05:49:40;;;;;;;9.23;3.53;;;;;;;;;;5069680;28;20436;-15
2022/08/08 05:52:20;;;;;;;9.52;3.15;;;;;;;;;;5069681;28;20445;-16
2022/08/08 05:55:00;;;;;;;10.35;3.05;;;;;;;;;;5070078;28;20245;-13
2022/08/08 05:57:35;;;;;;;12.35;3.25;;;;;;;;;;5070040;28;20994;-16
2022/08/08 06:00:24;;;;;;;13.65;3.00;;;;;;;;;;5057083;28;20232;-13
2022/08/08 06:03:11;;;;;;;8.82;2.83;;;;;;;;;;5067627;28;20317;-13
2022/08/08 06:05:51;;;;;;;5.70;2.70;;;;;;;;;;5059315;28;20321;-13
2022/08/08 06:08:24;;;;;;;9.80;2.70;;;;;;;;;;5068919;28;20231;-15
2022/08/08 06:11:01;;;;;;;6.50;2.75;;;;;;;;;;5069470;28;20256;-15
2022/08/08 06:13:28;;;;;;;11.93;2.70;;;;;;;;;;5068574;28;20251;-16
2022/08/08 06:16:11;;;;;;;6.30;2.60;;;;;;;;;;5068456;28;20295;-13
2022/08/08 06:18:39;;;;;;;7.20;2.97;;;;;;;;;;5069281;28;20228;-13
2022/08/08 06:21:09;;;;;;;4.80;2.75;;;;;;;;;;5068551;28;20225;-14
2022/08/08 06:23:44;;;;;;;4.38;2.33;;;;;;;;;;5069466;28;20228;-15
2022/08/08 06:26:30;;;;;;;5.60;3.00;;;;;;;;;;5069497;28;20233;-13
2022/08/08 06:29:10;;;;;;;6.22;2.42;;;;;;;;;;5069737;28;20229;-15
2022/08/08 06:32:00;;;;;;;4.80;2.38;;;;;;;;;;5069707;28;20236;-16
2022/08/08 06:34:37;;;;;;;4.88;2.38;;;;;;;;;;5069704;28;20237;-13
2022/08/08 06:37:04;;;;;;;3.25;2.28;;;;;;;;;;5069057;28;20243;-13
2022/08/08 06:39:51;;;;;;;4.30;2.45;;;;;;;;;;5069588;28;20233;-13
2022/08/08 06:42:22;;;;;;;6.15;2.13;;;;;;;;;;5070347;28;20225;-15
2022/08/08 06:44:50;;;;;;;2.85;2.20;;;;;;;;;;5069891;28;20939;-14
2022/08/08 06:47:19;;;;;;;2.83;2.10;;;;;;;;;;5069141;28;20240;-14
2022/08/08 06:49:48;;;;;;;4.50;2.10;;;;;;;;;;5069767;28;20260;-14
2022/08/08 06:52:23;;;;;;;7.32;2.25;;;;;;;;;;5070076;28;20264;-13
2022/08/08 06:54:54;;;;;;;6.22;2.20;;;;;;;;;;5071401;28;20249;-14
2022/08/08 06:57:23;;;;;;;4.07;2.20;;;;;;;;;;5073047;28;20234;-14
2022/08/08 06:59:56;;;;;;;2.78;2.00;;;;;;;;;;5073285;28;20365;-14
2022/08/08 07:02:41;;;;;;;3.97;2.03;;;;;;;;;;5064769;28;20240;-14
2022/08/08 07:05:13;;;;;;;3.97;2.20;;;;;;;;;;5073653;28;20829;-14
2022/08/08 07:07:55;;;;;;;4.03;1.85;;;;;;;;;;5073467;28;20233;-14
2022/08/08 07:10:23;;;;;;;4.32;1.90;;;;;;;;;;5072683;28;20691;-14
2022/08/08 07:12:52;;;;;;;3.33;1.88;;;;;;;;;;5073441;28;20225;-14
2022/08/08 07:15:22;;;;;;;4.47;1.65;;;;;;;;;;5072753;28;20420;-14
2022/08/08 07:18:10;;;;;;;2.08;1.50;;;;;;;;;;5073219;28;20225;-14
2022/08/08 07:20:59;;;;;;;2.78;1.70;;;;;;;;;;5072488;28;20229;-13
2022/08/08 07:23:31;;;;;;;2.13;1.83;;;;;;;;;;5072667;28;20241;-14
2022/08/08 07:26:19;;;;;;;3.30;1.80;;;;;;;;;;5072884;28;20229;-14
2022/08/08 07:28:58;;;;;;;2.75;1.60;;;;;;;;;;5073660;28;20693;-14
2022/08/08 07:31:31;;;;;;;2.88;1.40;;;;;;;;;;5072569;28;20237;-14
2022/08/08 07:34:03;;;;;;;2.30;1.48;;;;;;;;;;5072817;28;20313;-14
2022/08/08 07:36:35;;;;;;;2.45;1.73;;;;;;;;;;5072693;28;20243;-14
2022/08/08 07:39:03;;;;;;;2.50;1.70;;;;;;;;;;5073101;28;20259;-14
2022/08/08 07:41:37;;;;;;;3.30;1.75;;;;;;;;;;5071923;28;20229;-14
2022/08/08 07:44:24;;;;;;;3.35;1.88;;;;;;;;;;5072787;28;20234;-14
2022/08/08 07:47:07;;;;;;;3.00;1.98;;;;;;;;;;5072517;28;20229;-14
2022/08/08 07:49:35;;;;;;;3.33;1.80;;;;;;;;;;5072874;28;20236;-14
2022/08/08 07:52:06;;;;;;;3.90;1.70;;;;;;;;;;5072956;28;20696;-14
2022/08/08 07:54:41;;;;;;;2.75;1.70;;;;;;;;;;5068025;28;20237;-14
2022/08/08 07:57:15;;;;;;;3.17;1.58;;;;;;;;;;5072404;28;20236;-14
2022/08/08 07:59:46;;;;;;;2.38;1.50;;;;;;;;;;5072231;28;20718;-14
2022/08/08 08:02:16;;;;;;;2.60;1.67;;;;;;;;;;5072224;28;20226;-14
2022/08/08 08:05:07;;;;;;;3.25;1.60;;;;;;;;;;5071695;28;20233;-14
2022/08/08 08:07:41;;;;;;;2.42;1.48;;;;;;;;;;5072184;28;20264;-14
2022/08/08 08:10:12;;;;;;;2.97;1.33;;;;;;;;;;5072363;28;20229;-15
2022/08/08 08:12:41;;;;;;;3.35;1.85;;;;;;;;;;5072354;28;20237;-14
2022/08/08 08:15:09;;;;;;;3.47;1.75;;;;;;;;;;5071672;28;20367;-14
2022/08/08 08:17:38;;;;;;;3.67;1.50;;;;;;;;;;5072203;28;20233;-13
2022/08/08 08:20:16;;;;;;;3.00;1.50;;;;;;;;;;5071895;28;20225;-14
2022/08/08 08:22:45;;;;;;;1.92;1.50;;;;;;;;;;5071463;28;20241;-14
2022/08/08 08:25:13;;;;;;;2.78;1.58;;;;;;;;;;5071396;28;20573;-14
2022/08/08 08:27:45;;;;;;;3.60;1.75;;;;;;;;;;5072141;28;20229;-14
2022/08/08 08:30:13;;;;;;;2.15;1.40;;;;;;;;;;5072023;28;20225;-14
2022/08/08 08:32:42;;;;;;;3.80;1.58;;;;;;;;;;5071952;28;20253;-14
2022/08/08 08:35:19;;;;;;;2.95;1.40;;;;;;;;;;5072052;28;20241;-14
2022/08/08 08:37:55;;;;;;;4.10;1.65;;;;;;;;;;5071294;28;20315;-14
2022/08/08 08:40:43;;;;;;;3.22;1.45;;;;;;;;;;5072357;28;20225;-14
2022/08/08 08:43:17;;;;;;;3.65;1.60;;;;;;;;;;5071743;28;21035;-13
2022/08/08 08:45:45;;;;;;;2.50;1.45;;;;;;;;;;5071842;28;20288;-14
2022/08/08 08:48:12;;;;;;;2.65;1.38;;;;;;;;;;5070869;28;20229;-14
2022/08/08 08:50:47;;;;;;;1.55;1.20;;;;;;;;;;5071732;28;20316;-14
2022/08/08 08:53:18;;;;;;;2.08;1.15;;;;;;;;;;5071778;28;20351;-13
2022/08/08 08:56:05;;;;;;;2.95;1.38;;;;;;;;;;5071550;28;20233;-15
2022/08/08 08:58:34;;;;;;;3.33;1.20;;;;;;;;;;5071380;28;20221;-15
2022/08/08 09:01:04;;;;;;;4.07;1.52;;;;;;;;;;5071506;28;20248;-13
2022/08/08 09:03:39;;;;;;;1.88;1.00;;;;;;;;;;5071442;28;20765;-14
2022/08/08 09:06:18;;;;;;;3.15;1.45;;;;;;;;;;5071331;28;20232;-15
2022/08/08 09:09:01;;;;;;;3.45;1.52;;;;;;;;;;5071474;28;20261;-14
2022/08/08 09:11:30;;;;;;;2.17;1.20;;;;;;;;;;5070463;28;20232;-15
2022/08/08 09:13:59;;;;;;;2.13;1.20;;;;;;;;;;5071481;28;20322;-15
2022/08/08 09:16:27;;;;;;;3.72;1.60;;;;;;;;;;5070461;28;20276;-15
2022/08/08 09:18:55;;;;;;;2.13;1.08;;;;;;;;;;5071278;28;20329;-14
2022/08/08 09:21:24;;;;;;;1.60;1.00;;;;;;;;;;5071065;28;20684;-15
2022/08/08 09:24:11;;;;;;;3.50;1.15;;;;;;;;;;5071492;28;20235;-15
2022/08/08 09:26:41;;;;;;;1.73;1.27;;;;;;;;;;5070980;28;20739;-14
2022/08/08 09:29:18;;;;;;;2.35;1.10;;;;;;;;;;5057537;28;20325;-15
2022/08/08 09:31:53;;;;;;;2.28;1.20;;;;;;;;;;5070157;28;20228;-15
2022/08/08 09:34:24;;;;;;;1.52;1.10;;;;;;;;;;5057493;28;20264;-15
2022/08/08 09:37:02;;;;;;;2.00;1.05;;;;;;;;;;5070915;28;20964;-15
2022/08/08 09:39:51;;;;;;;2.58;1.25;;;;;;;;;;5071042;28;20217;-15
2022/08/08 09:42:21;;;;;;;2.17;1.20;;;;;;;;;;5070262;28;20263;-14
2022/08/08 09:44:56;;;;;;;3.42;1.00;;;;;;;;;;5071291;28;20229;-15
2022/08/08 09:47:30;;;;;;;1.77;0.88;;;;;;;;;;5063611;28;20247;-15
2022/08/08 09:50:19;;;;;;;2.92;0.98;;;;;;;;;;5070871;28;20823;-15
2022/08/08 09:52:50;;;;;;;1.50;0.98;;;;;;;;;;5070843;28;20221;-15
2022/08/08 09:55:29;;;;;;;2.72;1.00;;;;;;;;;;5070428;28;20241;-15
2022/08/08 09:58:17;;;;;;;1.98;1.20;;;;;;;;;;5070592;28;20234;-15
2022/08/08 10:01:05;;;;;;;5.13;1.63;;;;;;;;;;5070536;28;20236;-15
2022/08/08 10:03:52;;;;;;;2.45;1.10;;;;;;;;;;5058134;28;20579;-14
2022/08/08 10:06:23;;;;;;;3.17;1.10;;;;;;;;;;5070025;28;20718;-15
2022/08/08 10:08:57;;;;;;;1.90;1.00;;;;;;;;;;5070862;28;20229;-15
2022/08/08 10:11:26;;;;;;;1.58;1.00;;;;;;;;;;5070309;28;20260;-15
2022/08/08 10:14:13;;;;;;;1.55;0.98;;;;;;;;;;5070690;28;20233;-15
2022/08/08 10:17:02;;;;;;;3.35;0.95;;;;;;;;;;5065664;28;20704;-15
2022/08/08 10:19:52;;;;;;;2.35;1.23;;;;;;;;;;5063424;28;20229;-15
2022/08/08 10:22:24;;;;;;;1.35;0.82;;;;;;;;;;5070062;28;20739;-15
2022/08/08 10:24:54;;;;;;;1.48;0.90;;;;;;;;;;5070356;28;20923;-15
2022/08/08 10:27:21;;;;;;;1.38;0.82;;;;;;;;;;5069523;28;20279;-15
2022/08/08 10:29:52;;;;;;;1.58;1.20;;;;;;;;;;5070261;28;20226;-15
2022/08/08 10:32:34;;;;;;;2.33;0.90;;;;;;;;;;5070561;28;20229;-14
2022/08/08 10:35:04;;;;;;;1.45;0.80;;;;;;;;;;5070134;28;20680;-15
2022/08/08 10:37:38;;;;;;;2.95;1.02;;;;;;;;;;5069024;28;20922;-15
2022/08/08 10:40:13;;;;;;;1.65;0.73;;;;;;;;;;5070323;28;20233;-15
2022/08/08 10:42:43;;;;;;;1.23;0.80;;;;;;;;;;5070029;28;20276;-15
2022/08/08 10:45:11;;;;;;;2.83;1.23;;;;;;;;;;5070117;28;20291;-14
2022/08/08 10:47:42;;;;;;;1.48;0.80;;;;;;;;;;5069903;28;20653;-15
2022/08/08 10:50:21;;;;;;;1.30;0.77;;;;;;;;;;5069322;28;20233;-15
2022/08/08 10:52:50;;;;;;;2.78;0.93;;;;;;;;;;5070267;28;20233;-15
2022/08/08 10:55:19;;;;;;;1.08;0.80;;;;;;;;;;5069978;28;20229;-15
2022/08/08 10:58:07;;;;;;;2.55;1.10;;;;;;;;;;5069974;28;20234;-14
2022/08/08 11:00:34;;;;;;;3.58;1.20;;;;;;;;;;5069001;28;20244;-15
2022/08/08 11:03:21;;;;;;;2.28;0.95;;;;;;;;;;5069761;28;20675;-15
2022/08/08 11:06:09;;;;;;;1.23;0.90;;;;;;;;;;5069985;28;20229;-15
2022/08/08 11:08:40;;;;;;;1.10;0.80;;;;;;;;;;5069757;28;20724;-15
2022/08/08 11:11:21;;;;;;;2.88;1.00;;;;;;;;;;5069136;28;20226;-15
2022/08/08 11:14:09;;;;;;;1.58;0.73;;;;;;;;;;5057925;28;20719;-15
2022/08/08 11:16:43;;;;;;;2.42;1.00;;;;;;;;;;5069876;28;20241;-15
2022/08/08 11:19:13;;;;;;;1.58;1.00;;;;;;;;;;5069605;28;20233;-15
2022/08/08 11:21:44;;;;;;;1.65;0.95;;;;;;;;;;5072861;28;20243;-15
2022/08/08 11:24:22;;;;;;;1.63;0.90;;;;;;;;;;5069602;28;20296;-15
2022/08/08 11:26:51;;;;;;;1.20;0.80;;;;;;;;;;5069374;28;20238;-15
2022/08/08 11:29:23;;;;;;;2.67;0.95;;;;;;;;;;5069211;28;20661;-15
2022/08/08 11:32:11;;;;;;;2.03;1.00;;;;;;;;;;5068490;28;20277;-15
2022/08/08 11:34:39;;;;;;;1.90;0.82;;;;;;;;;;5069173;28;20237;-15
2022/08/08 11:37:27;;;;;;;1.73;0.70;;;;;;;;;;5069096;28;20237;-15
2022/08/08 11:40:14;;;;;;;1.00;0.80;;;;;;;;;;5070586;28;20225;-15
2022/08/08 11:42:50;;;;;;;2.60;0.90;;;;;;;;;;5072925;28;20308;-15
2022/08/08 11:45:17;;;;;;;1.45;0.90;;;;;;;;;;5071881;28;20226;-15
2022/08/08 11:47:45;;;;;;;2.42;0.88;;;;;;;;;;5072774;28;20753;-15
2022/08/08 11:50:31;;;;;;;0.65;0.65;;;;;;;;;;5072908;28;20234;-15
2022/08/08 11:53:01;;;;;;;2.83;0.80;;;;;;;;;;5072673;28;20230;-15
2022/08/08 11:55:34;;;;;;;2.42;1.10;;;;;;;;;;5072143;28;20755;-15
2022/08/08 11:58:04;;;;;;;1.23;0.80;;;;;;;;;;5072595;28;21030;-15
2022/08/08 12:00:45;;;;;;;1.65;0.90;;;;;;;;;;5072543;28;20990;-15
2022/08/08 12:03:15;;;;;;;2.70;1.05;;;;;;;;;;5072544;28;20225;-15
2022/08/08 12:05:47;;;;;;;1.17;0.80;;;;;;;;;;5071879;28;20228;-15
2022/08/08 12:08:14;;;;;;;1.30;0.73;;;;;;;;;;5072523;28;20324;-15
2022/08/08 12:10:48;;;;;;;2.10;0.95;;;;;;;;;;5072545;28;20714;-15
2022/08/08 12:13:21;;;;;;;1.60;0.80;;;;;;;;;;5072354;28;20756;-15
2022/08/08 12:16:07;;;;;;;1.50;0.90;;;;;;;;;;5072511;28;20600;-15
2022/08/08 12:18:43;;;;;;;1.88;0.80;;;;;;;;;;5072245;28;20234;-15
2022/08/08 12:21:22;;;;;;;2.75;0.98;;;;;;;;;;5072201;28;20229;-15
2022/08/08 12:24:12;;;;;;;2.60;1.23;;;;;;;;;;5072327;28;20229;-15
2022/08/08 12:26:40;;;;;;;1.65;0.95;;;;;;;;;;5072566;28;20264;-15
2022/08/08 12:29:22;;;;;;;2.38;0.80;;;;;;;;;;5071708;28;20233;-15
2022/08/08 12:32:09;;;;;;;2.30;0.90;;;;;;;;;;5072032;28;20244;-14
2022/08/08 12:34:49;;;;;;;3.95;1.08;;;;;;;;;;5072239;28;20226;-15
2022/08/08 12:37:20;;;;;;;2.05;0.90;;;;;;;;;;5072057;28;20248;-15
2022/08/08 12:39:47;;;;;;;1.88;0.90;;;;;;;;;;5071306;28;21267;-15
2022/08/08 12:42:29;;;;;;;4.68;1.05;;;;;;;;;;5072016;28;20226;-15
2022/08/08 12:45:03;;;;;;;4.47;1.20;;;;;;;;;;5071916;28;20233;-15
2022/08/08 12:47:58;;;;;;;1.83;0.70;;;;;;;;;;5067686;28;20230;-15
2022/08/08 12:50:46;;;;;;;1.70;0.90;;;;;;;;;;5071609;28;20229;-15
2022/08/08 12:53:24;;;;;;;1.98;0.90;;;;;;;;;;5070670;28;20700;-15
2022/08/08 12:56:05;;;;;;;1.75;0.70;;;;;;;;;;5071930;28;20861;-15
2022/08/08 12:58:46;;;;;;;4.18;1.00;;;;;;;;;;5071867;28;20331;-15
2022/08/08 13:01:15;;;;;;;1.80;0.90;;;;;;;;;;5070988;28;20244;-15
2022/08/08 13:03:46;;;;;;;4.50;0.90;;;;;;;;;;5071501;28;20312;-15
2022/08/08 13:06:18;;;;;;;1.40;0.77;;;;;;;;;;5071715;28;20314;-15
2022/08/08 13:08:46;;;;;;;1.25;0.82;;;;;;;;;;5071481;28;20358;-15
2022/08/08 13:11:23;;;;;;;1.85;0.77;;;;;;;;;;5071127;28;20690;-15
2022/08/08 13:14:02;;;;;;;3.85;1.38;;;;;;;;;;5057850;28;20265;-15
2022/08/08 13:16:32;;;;;;;2.10;1.23;;;;;;;;;;5071262;28;20229;-15
2022/08/08 13:19:00;;;;;;;2.25;0.75;;;;;;;;;;5057386;28;20241;-15
2022/08/08 13:21:40;;;;;;;1.83;0.88;;;;;;;;;;5070772;28;20240;-15
2022/08/08 13:24:24;;;;;;;1.58;1.00;;;;;;;;;;5069518;28;20225;-15
2022/08/08 13:27:12;;;;;;;3.13;1.23;;;;;;;;;;5070915;28;20259;-15
2022/08/08 13:29:48;;;;;;;2.55;0.80;;;;;;;;;;5071305;28;20230;-15
2022/08/08 13:32:18;;;;;;;1.98;1.10;;;;;;;;;;5071005;28;20283;-15
2022/08/08 13:34:50;;;;;;;1.40;0.82;;;;;;;;;;5070877;28;20236;-15
2022/08/08 13:37:19;;;;;;;2.00;0.80;;;;;;;;;;5070980;28;20658;-15
2022/08/08 13:40:06;;;;;;;1.30;0.70;;;;;;;;;;5071119;28;20236;-15
2022/08/08 13:42:34;;;;;;;2.13;0.90;;;;;;;;;;5071076;28;20685;-15
2022/08/08 13:45:02;;;;;;;2.50;0.93;;;;;;;;;;5070286;28;20234;-15
2022/08/08 13:47:33;;;;;;;2.80;1.00;;;;;;;;;;5070805;28;20237;-15
2022/08/08 13:50:02;;;;;;;3.85;1.00;;;;;;;;;;5070755;28;20233;-15
2022/08/08 13:52:49;;;;;;;1.77;0.80;;;;;;;;;;5071110;28;20241;-15
2022/08/08 13:55:21;;;;;;;2.63;1.10;;;;;;;;;;5070001;28;20237;-15
2022/08/08 13:58:02;;;;;;;2.25;1.10;;;;;;;;;;5071054;28;20380;-15
2022/08/08 14:00:41;;;;;;;3.85;1.00;;;;;;;;;;5070583;28;20237;-15
2022/08/08 14:03:13;;;;;;;3.17;1.00;;;;;;;;;;5070374;28;20314;-15
2022/08/08 14:06:07;;;;;;;3.13;0.95;;;;;;;;;;5070600;28;20232;-15
2022/08/08 14:08:47;;;;;;;1.10;0.77;;;;;;;;;;5070516;28;20427;-15
2022/08/08 14:11:15;;;;;;;1.98;0.90;;;;;;;;;;5070611;28;20241;-15
2022/08/08 14:13:43;;;;;;;3.97;0.85;;;;;;;;;;5070433;28;20237;-15
2022/08/08 14:16:27;;;;;;;2.85;0.90;;;;;;;;;;5070669;28;20241;-15
2022/08/08 14:18:56;;;;;;;1.10;0.85;;;;;;;;;;5069838;28;20284;-15
2022/08/08 14:21:31;;;;;;;1.50;0.80;;;;;;;;;;5070537;28;20221;-15
2022/08/08 14:24:06;;;;;;;1.25;0.70;;;;;;;;;;5070452;28;20241;-15
2022/08/08 14:26:37;;;;;;;2.30;0.95;;;;;;;;;;5070347;28;21067;-15
2022/08/08 14:29:04;;;;;;;2.83;1.00;;;;;;;;;;5069326;28;20233;-15
2022/08/08 14:31:46;;;;;;;1.75;0.80;;;;;;;;;;5070138;28;20295;-15
2022/08/08 14:34:35;;;;;;;2.92;1.00;;;;;;;;;;5058719;28;20233;-15
2022/08/08 14:37:05;;;;;;;1.75;0.90;;;;;;;;;;5070254;28;20782;-15
2022/08/08 14:39:40;;;;;;;1.42;0.73;;;;;;;;;;5069182;28;20609;-15
2022/08/08 14:42:15;;;;;;;1.90;0.80;;;;;;;;;;5069949;28;20703;-15
2022/08/08 14:44:52;;;;;;;2.20;0.90;;;;;;;;;;5070445;28;20233;-15
2022/08/08 14:47:20;;;;;;;1.45;0.80;;;;;;;;;;5070044;28;20310;-15
2022/08/08 14:49:49;;;;;;;3.15;1.02;;;;;;;;;;5070066;28;20619;-15
2022/08/08 14:52:40;;;;;;;1.88;0.85;;;;;;;;;;5070344;28;20233;-15
2022/08/08 14:55:09;;;;;;;2.30;0.90;;;;;;;;;;5069893;28;20283;-15
2022/08/08 14:57:37;;;;;;;1.30;0.70;;;;;;;;;;5070024;28;20234;-15
2022/08/08 15:00:25;;;;;;;0.90;0.70;;;;;;;;;;5057191;28;20221;-15
2022/08/08 15:02:55;;;;;;;1.33;0.85;;;;;;;;;;5069312;28;20755;-15
2022/08/08 15:05:29;;;;;;;2.67;1.00;;;;;;;;;;5057093;28;20802;-15
2022/08/08 15:08:11;;;;;;;2.28;0.75;;;;;;;;;;5069551;28;20230;-15
2022/08/08 15:10:59;;;;;;;2.30;0.70;;;;;;;;;;5070243;28;20229;-15
2022/08/08 15:13:26;;;;;;;4.05;0.90;;;;;;;;;;5069101;28;20279;-15
2022/08/08 15:16:08;;;;;;;2.80;1.35;;;;;;;;;;5072018;28;20716;-15
2022/08/08 15:18:40;;;;;;;2.70;0.90;;;;;;;;;;5073048;28;20245;-15
2022/08/08 15:21:18;;;;;;;2.88;0.90;;;;;;;;;;5072471;28;20243;-15
2022/08/08 15:23:47;;;;;;;2.50;0.93;;;;;;;;;;5071611;28;20280;-15
2022/08/08 15:26:17;;;;;;;3.22;1.10;;;;;;;;;;5072257;28;20355;-15
2022/08/08 15:28:45;;;;;;;1.75;1.15;;;;;;;;;;5072836;28;20237;-15
2022/08/08 15:31:19;;;;;;;2.10;0.80;;;;;;;;;;5071783;28;20340;-15
2022/08/08 15:34:07;;;;;;;2.92;1.00;;;;;;;;;;5072077;28;20229;-15
2022/08/08 15:36:36;;;;;;;1.42;0.88;;;;;;;;;;5071782;28;20245;-15
2022/08/08 15:39:04;;;;;;;2.08;0.75;;;;;;;;;;5072206;28;20241;-15
2022/08/08 15:41:34;;;;;;;3.50;1.08;;;;;;;;;;5071977;28;20232;-15
2022/08/08 15:44:12;;;;;;;1.90;0.73;;;;;;;;;;5071633;28;20257;-15
2022/08/08 15:46:40;;;;;;;4.10;1.17;;;;;;;;;;5071289;28;20233;-15
2022/08/08 15:49:16;;;;;;;1.52;1.00;;;;;;;;;;5071864;28;20393;-15